createdAt,value
2019-04-04T16:37:08.134Z,9.18
2019-04-04T16:39:38.067Z,9.45
2019-04-04T16:42:07.913Z,11.38
2019-04-04T16:44:37.757Z,9.95
2019-04-04T16:47:07.607Z,11.78
2019-04-04T16:49:38.353Z,11.88
2019-04-04T16:52:08.685Z,12.93
2019-04-04T16:54:38.574Z,12.63
2019-04-04T16:57:08.489Z,11.68
2019-04-04T16:59:38.454Z,12.85
2019-04-04T17:02:08.932Z,12.07
2019-04-04T17:04:38.804Z,11.85
2019-04-04T17:07:09.069Z,11.73
2019-04-04T17:09:38.969Z,11.10
2019-04-04T17:12:14.773Z,11.20
2019-04-04T17:14:40.863Z,10.65
2019-04-04T17:17:10.778Z,10.18
2019-04-04T17:19:40.694Z,11.85
2019-04-04T17:22:10.711Z,11.88
2019-04-04T17:24:40.975Z,11.05
2019-04-04T17:27:11.154Z,10.48
2019-04-04T17:29:41.273Z,10.63
2019-04-04T17:32:13.360Z,9.90
2019-04-04T17:34:43.562Z,10.37
2019-04-04T17:37:14.166Z,9.83
2019-04-04T17:39:44.158Z,10.28
2019-04-04T17:42:22.111Z,9.50
2019-04-04T17:44:45.679Z,9.05
2019-04-04T17:47:15.775Z,9.88
2019-04-04T17:49:45.749Z,9.90
2019-04-04T17:52:15.988Z,10.13
2019-04-04T17:54:46.226Z,10.45
2019-04-04T17:57:16.840Z,10.20
2019-04-04T17:59:47.010Z,9.88
2019-04-04T18:02:17.437Z,9.23
2019-04-04T18:04:48.573Z,9.10
2019-04-04T18:07:18.911Z,8.95
2019-04-04T18:09:48.909Z,8.90
2019-04-04T18:12:19.566Z,8.73
2019-04-04T18:14:50.053Z,8.68
2019-04-04T18:17:22.046Z,8.25
2019-04-04T18:19:51.961Z,8.08
2019-04-04T18:22:21.978Z,7.75
2019-04-04T18:24:52.610Z,7.95
2019-04-04T18:27:22.628Z,7.85
2019-04-04T18:29:52.545Z,8.10
2019-04-04T18:32:22.560Z,8.00
2019-04-04T18:34:53.261Z,7.80
2019-04-04T18:37:23.195Z,7.42
2019-04-04T18:39:53.431Z,7.45
2019-04-04T18:42:23.960Z,7.45
2019-04-04T18:44:53.976Z,6.95
2019-04-04T18:47:23.891Z,7.42
2019-04-04T18:49:53.807Z,7.35
2019-04-04T18:52:23.722Z,6.87
2019-04-04T18:54:53.739Z,7.92
2019-04-04T18:57:23.757Z,7.05
2019-04-04T18:59:53.674Z,7.42
2019-04-04T19:02:23.692Z,7.58
2019-04-04T19:04:53.603Z,7.20
2019-04-04T19:07:23.626Z,7.33
2019-04-04T19:09:53.536Z,7.00
2019-04-04T19:12:23.453Z,7.12
2019-04-04T19:14:53.863Z,6.22
2019-04-04T19:17:36.288Z,6.55
2019-04-04T19:20:09.995Z,5.80
2019-04-04T19:22:39.420Z,6.80
2019-04-04T19:25:09.307Z,6.30
2019-04-04T19:27:39.129Z,6.03
2019-04-04T19:30:09.548Z,6.65
2019-04-04T19:32:39.666Z,6.42
2019-04-04T19:35:09.582Z,6.10
2019-04-04T19:37:39.597Z,6.25
2019-04-04T19:40:09.615Z,6.00
2019-04-04T19:42:39.632Z,6.17
2019-04-04T19:45:09.650Z,6.42
2019-04-04T19:47:39.973Z,5.33
2019-04-04T19:50:11.018Z,5.55
2019-04-04T19:52:42.363Z,5.28
2019-04-04T19:55:12.278Z,5.10
2019-04-04T19:57:42.123Z,5.30
2019-04-04T20:00:12.619Z,5.33
2019-04-04T20:02:44.103Z,5.22
2019-04-04T20:05:14.589Z,5.12
2019-04-04T20:07:44.520Z,5.15
2019-04-04T20:10:14.430Z,5.17
2019-04-04T20:12:44.653Z,5.40
2019-04-04T20:15:14.755Z,4.85
2019-04-04T20:17:47.555Z,5.25
2019-04-04T20:20:17.471Z,5.28
2019-04-04T20:22:47.383Z,4.65
2019-04-04T20:25:17.298Z,4.80
2019-04-04T20:27:54.463Z,4.55
2019-04-04T20:30:21.942Z,4.47
2019-04-04T20:32:51.856Z,4.75
2019-04-04T20:35:21.716Z,4.37
2019-04-04T20:37:51.585Z,4.67
2019-04-04T20:40:21.422Z,4.22
2019-04-04T20:42:51.414Z,4.42
2019-04-04T20:45:21.248Z,4.50
2019-04-04T20:47:51.140Z,4.85
2019-04-04T20:50:21.054Z,4.58
2019-04-04T20:52:50.970Z,4.40
2019-04-04T20:55:21.908Z,4.42
2019-04-04T20:57:51.749Z,4.58
2019-04-04T21:00:21.635Z,4.35
2019-04-04T21:02:51.552Z,4.58
2019-04-04T21:05:21.465Z,4.22
2019-04-04T21:07:51.434Z,4.50
2019-04-04T21:10:21.295Z,3.77
2019-04-04T21:12:51.210Z,3.83
2019-04-04T21:15:21.129Z,4.20
2019-04-04T21:17:51.039Z,3.90
2019-04-04T21:20:20.954Z,3.58
2019-04-04T21:22:50.798Z,3.50
2019-04-04T21:25:21.092Z,3.60
2019-04-04T21:27:51.109Z,3.65
2019-04-04T21:30:21.026Z,3.47
2019-04-04T21:32:50.863Z,3.37
2019-04-04T21:35:20.752Z,3.00
2019-04-04T21:37:50.666Z,3.40
2019-04-04T21:40:20.562Z,3.55
2019-04-04T21:42:50.497Z,3.12
2019-04-04T21:45:20.410Z,3.35
2019-04-04T21:47:50.326Z,3.12
2019-04-04T21:50:20.547Z,2.65
2019-04-04T21:52:50.464Z,3.12
2019-04-04T21:55:20.365Z,2.98
2019-04-04T21:57:50.293Z,3.17
2019-04-04T22:00:21.027Z,3.25
2019-04-04T22:02:52.579Z,3.37
2019-04-04T22:05:22.495Z,3.05
2019-04-04T22:07:52.391Z,3.37
2019-04-04T22:10:23.234Z,3.15
2019-04-04T22:12:53.141Z,2.70
2019-04-04T22:15:23.179Z,3.00
2019-04-04T22:17:52.997Z,2.80
2019-04-04T22:20:22.841Z,3.05
2019-04-04T22:22:53.128Z,2.98
2019-04-04T22:25:23.043Z,3.12
2019-04-04T22:27:53.042Z,3.20
2019-04-04T22:30:22.976Z,2.67
2019-04-04T22:32:53.094Z,3.83
2019-04-04T22:35:22.989Z,3.60
2019-04-04T22:37:52.903Z,2.87
2019-04-04T22:40:22.818Z,2.72
2019-04-04T22:42:53.042Z,3.10
2019-04-04T22:45:22.955Z,2.92
2019-04-04T22:47:52.972Z,2.95
2019-04-04T22:50:23.812Z,3.00
2019-04-04T22:52:53.725Z,2.83
2019-04-04T22:55:26.400Z,3.25
2019-04-04T22:57:55.191Z,2.98
2019-04-04T23:00:25.664Z,3.10
2019-04-04T23:02:56.557Z,3.00
2019-04-04T23:05:26.574Z,2.62
2019-04-04T23:07:56.490Z,3.33
2019-04-04T23:10:26.404Z,2.90
2019-04-04T23:12:56.421Z,3.42
2019-04-04T23:15:26.338Z,3.10
2019-04-04T23:17:56.255Z,2.92
2019-04-04T23:20:28.305Z,2.87
2019-04-04T23:23:01.012Z,2.98
2019-04-04T23:25:29.886Z,2.70
2019-04-04T23:28:00.109Z,3.20
2019-04-04T23:30:30.027Z,2.58
2019-04-04T23:33:00.248Z,2.37
2019-04-04T23:35:30.468Z,2.58
2019-04-04T23:38:00.385Z,2.67
2019-04-04T23:40:30.706Z,2.85
2019-04-04T23:43:00.620Z,2.50
2019-04-04T23:45:30.540Z,2.98
2019-04-04T23:48:00.451Z,2.27
2019-04-04T23:50:30.369Z,2.80
2019-04-04T23:53:00.691Z,2.72
2019-04-04T23:55:30.608Z,2.20
2019-04-04T23:58:00.521Z,2.27
